Time;durP1;ratioP1;P1;durP2;ratioP2;P2;SDS_P1;SDS_P2;PMS_P1;PMS_P2;Temp;Humidity;BMP_temperature;BMP_pressure;BME280_temperature;BME280_humidity;BME280_pressure;Samples;Min_cycle;Max_cycle;Signal;HPM_P1;HPM_P2
2022/08/20 00:02:15;;;;;;;2.72;2.50;;;20.90;99.90;;;;;;5052447;28;20257;-86
2022/08/20 00:04:44;;;;;;;2.63;2.42;;;20.90;99.90;;;;;;5052210;28;20213;-87
2022/08/20 00:07:15;;;;;;;2.28;2.17;;;20.90;99.90;;;;;;5051933;28;20210;-86
2022/08/20 00:09:44;;;;;;;2.97;2.72;;;20.90;99.90;;;;;;5055607;28;20222;-86
2022/08/20 00:12:17;;;;;;;3.25;2.97;;;20.90;99.90;;;;;;5056014;28;20218;-86
2022/08/20 00:14:46;;;;;;;2.55;2.35;;;20.90;99.90;;;;;;5055804;28;20269;-87
2022/08/20 00:17:14;;;;;;;8.52;3.05;;;20.90;99.90;;;;;;5068504;28;20206;-86
2022/08/20 00:19:42;;;;;;;3.30;3.00;;;20.90;99.90;;;;;;5066809;28;20297;-86
2022/08/20 00:22:10;;;;;;;2.70;2.50;;;20.90;99.90;;;;;;5055891;28;20289;-86
2022/08/20 00:24:40;;;;;;;3.22;2.95;;;20.80;99.90;;;;;;5055817;28;20236;-85
2022/08/20 00:27:08;;;;;;;2.72;2.53;;;20.80;99.90;;;;;;5055461;28;20317;-86
2022/08/20 00:29:37;;;;;;;2.70;2.50;;;20.90;99.90;;;;;;5055525;28;20232;-85
2022/08/20 00:32:05;;;;;;;2.63;2.45;;;20.90;99.90;;;;;;5055409;28;20237;-86
2022/08/20 00:34:33;;;;;;;2.63;2.53;;;20.90;99.90;;;;;;5055303;28;20293;-85
2022/08/20 00:37:01;;;;;;;2.83;2.50;;;20.90;99.90;;;;;;5055439;28;20286;-86
2022/08/20 00:39:30;;;;;;;2.63;2.42;;;20.90;99.90;;;;;;5055116;28;20237;-86
2022/08/20 00:41:59;;;;;;;2.92;2.72;;;20.90;99.90;;;;;;5055319;28;20312;-86
2022/08/20 00:44:28;;;;;;;2.25;2.15;;;20.90;99.90;;;;;;5055817;28;20265;-86
2022/08/20 00:46:57;;;;;;;1.98;1.88;;;20.90;99.90;;;;;;5055064;28;20202;-86
2022/08/20 00:49:27;;;;;;;2.25;2.05;;;20.90;99.90;;;;;;5054682;28;20285;-86
2022/08/20 00:51:59;;;;;;;3.38;2.30;;;20.90;99.90;;;;;;5055128;28;20309;-86
2022/08/20 00:54:34;;;;;;;2.15;2.05;;;21.00;99.90;;;;;;5055127;28;20205;-86
2022/08/20 00:57:08;;;;;;;2.75;2.03;;;20.90;99.90;;;;;;5054817;28;20205;-86
2022/08/20 00:59:38;;;;;;;1.88;1.77;;;21.00;99.90;;;;;;5055071;28;20229;-86
2022/08/20 01:02:09;;;;;;;2.45;2.25;;;21.00;99.90;;;;;;5054682;28;20232;-85
2022/08/20 01:04:38;;;;;;;3.75;2.58;;;21.00;99.90;;;;;;5054911;28;20285;-86
2022/08/20 01:07:07;;;;;;;1.98;1.88;;;21.00;99.90;;;;;;5054888;28;20285;-86
2022/08/20 01:09:38;;;;;;;1.75;1.65;;;21.00;99.90;;;;;;5054597;28;20297;-86
2022/08/20 01:12:29;;;;;;;2.47;2.28;;;21.00;99.90;;;;;;5054765;28;20233;-86
2022/08/20 01:15:00;;;;;;;2.50;2.30;;;21.00;99.90;;;;;;5054845;28;20208;-86
2022/08/20 01:17:32;;;;;;;2.28;2.08;;;21.00;99.90;;;;;;5055093;28;20210;-86
2022/08/20 01:20:06;;;;;;;1.95;1.77;;;21.00;99.90;;;;;;5053334;28;20288;-86
2022/08/20 01:25:38;;;;;;;1.88;1.77;;;21.00;99.90;;;;;;5054451;28;20277;-86
2022/08/20 01:28:07;;;;;;;1.45;1.35;;;21.00;99.90;;;;;;5054571;28;20209;-86
2022/08/20 01:30:37;;;;;;;1.98;1.88;;;21.00;99.90;;;;;;5054155;28;20280;-86
2022/08/20 01:33:05;;;;;;;2.05;1.85;;;20.90;99.90;;;;;;5054036;28;20209;-86
2022/08/20 01:35:36;;;;;;;1.85;1.75;;;20.90;99.90;;;;;;5054789;28;20212;-86
2022/08/20 01:38:05;;;;;;;2.22;2.03;;;21.00;99.90;;;;;;5054166;28;20274;-85
2022/08/20 01:40:50;;;;;;;2.90;2.03;;;20.90;99.90;;;;;;5053968;28;20289;-86
2022/08/20 01:43:18;;;;;;;1.92;1.70;;;21.00;99.90;;;;;;5053963;28;20225;-86
2022/08/20 01:45:51;;;;;;;1.58;1.52;;;21.00;99.90;;;;;;5054164;28;20201;-86
2022/08/20 01:48:21;;;;;;;1.40;1.30;;;21.00;99.90;;;;;;5053770;28;20210;-86
2022/08/20 01:51:00;;;;;;;1.88;1.77;;;21.00;99.90;;;;;;5053850;28;20230;-85
2022/08/20 01:53:33;;;;;;;1.45;1.35;;;21.00;99.90;;;;;;5054049;28;20221;-87
2022/08/20 01:56:05;;;;;;;1.40;1.30;;;21.00;99.90;;;;;;5054054;28;20218;-85
2022/08/20 01:58:35;;;;;;;1.40;1.40;;;21.00;99.90;;;;;;5053754;28;20209;-86
2022/08/20 02:01:04;;;;;;;1.27;1.25;;;21.00;99.90;;;;;;5053793;28;20226;-86
2022/08/20 02:03:33;;;;;;;1.23;1.20;;;21.00;99.90;;;;;;5053504;28;20230;-86
2022/08/20 02:06:09;;;;;;;1.30;1.30;;;21.00;99.90;;;;;;5053945;28;20209;-86
2022/08/20 02:08:37;;;;;;;1.30;1.20;;;21.00;99.90;;;;;;5053607;28;20209;-85
2022/08/20 02:11:07;;;;;;;1.20;1.20;;;21.00;99.90;;;;;;5053319;28;20253;-86
2022/08/20 02:13:35;;;;;;;1.10;1.10;;;20.90;99.90;;;;;;5053699;28;20221;-86
2022/08/20 02:16:05;;;;;;;1.13;1.13;;;20.90;99.90;;;;;;5053441;28;20248;-86
2022/08/20 02:18:33;;;;;;;1.30;1.25;;;20.90;99.90;;;;;;5053322;28;20202;-86
2022/08/20 02:21:02;;;;;;;1.48;1.40;;;20.90;99.90;;;;;;5053737;28;20309;-86
2022/08/20 02:23:30;;;;;;;1.38;1.30;;;20.90;99.90;;;;;;5053532;28;20217;-86
2022/08/20 02:25:59;;;;;;;1.45;1.35;;;20.90;99.90;;;;;;5053458;28;20205;-86
2022/08/20 02:28:29;;;;;;;1.30;1.20;;;20.90;99.90;;;;;;5053038;28;20206;-86
2022/08/20 02:30:59;;;;;;;1.63;1.50;;;20.90;99.90;;;;;;5052573;28;20237;-85
2022/08/20 02:33:27;;;;;;;1.23;0.93;;;21.00;99.90;;;;;;5053386;28;20289;-86
2022/08/20 02:35:56;;;;;;;1.38;1.38;;;20.90;99.90;;;;;;5053344;28;20240;-85
2022/08/20 02:38:25;;;;;;;1.20;1.20;;;20.90;99.90;;;;;;5052977;28;20232;-85
2022/08/20 02:40:53;;;;;;;1.27;1.17;;;20.90;99.90;;;;;;5052785;28;20308;-85
2022/08/20 02:43:21;;;;;;;1.00;1.00;;;20.90;99.90;;;;;;5052801;28;20281;-86
2022/08/20 02:45:51;;;;;;;0.90;0.90;;;21.00;99.90;;;;;;5052981;28;20305;-86
2022/08/20 02:48:21;;;;;;;1.23;1.15;;;20.90;99.90;;;;;;5052762;28;20209;-86
2022/08/20 02:50:53;;;;;;;1.00;1.00;;;21.00;99.90;;;;;;5052835;28;20233;-86
2022/08/20 02:53:23;;;;;;;1.17;1.17;;;20.90;99.90;;;;;;5052631;28;20265;-85
2022/08/20 02:55:52;;;;;;;1.50;1.40;;;20.90;99.90;;;;;;5053143;28;20288;-85
2022/08/20 02:58:21;;;;;;;1.45;1.35;;;20.90;99.90;;;;;;5052648;28;20269;-85
2022/08/20 03:00:51;;;;;;;1.23;1.23;;;20.90;99.90;;;;;;5052505;28;20314;-86
2022/08/20 03:03:21;;;;;;;1.10;1.10;;;20.90;99.90;;;;;;5052925;28;20209;-86
2022/08/20 03:05:51;;;;;;;0.98;0.98;;;20.90;99.90;;;;;;5052699;28;20213;-86
2022/08/20 03:08:20;;;;;;;1.17;1.10;;;20.80;99.90;;;;;;5052626;28;20293;-85
2022/08/20 03:10:51;;;;;;;1.00;1.00;;;20.80;99.90;;;;;;5052679;28;20261;-85
2022/08/20 03:13:20;;;;;;;1.15;1.15;;;20.80;99.90;;;;;;5052587;28;20240;-86
2022/08/20 03:15:53;;;;;;;1.08;1.08;;;20.80;99.90;;;;;;5052846;28;20207;-85
2022/08/20 03:18:28;;;;;;;1.02;1.02;;;20.80;99.90;;;;;;5052557;28;20209;-85
2022/08/20 03:20:56;;;;;;;1.65;1.55;;;20.80;99.90;;;;;;5052319;28;20230;-86
2022/08/20 03:23:24;;;;;;;3.53;2.38;;;20.80;99.90;;;;;;5052665;28;20293;-85
2022/08/20 03:25:53;;;;;;;2.13;2.00;;;20.80;99.90;;;;;;5052437;28;20210;-86
2022/08/20 03:28:21;;;;;;;1.40;1.40;;;20.80;99.90;;;;;;5052356;28;20222;-85
2022/08/20 03:30:50;;;;;;;1.05;1.05;;;20.80;99.90;;;;;;5052312;28;20281;-85
2022/08/20 03:33:20;;;;;;;1.25;1.23;;;20.80;99.90;;;;;;5052602;28;20229;-85
2022/08/20 03:35:49;;;;;;;1.35;1.35;;;20.70;99.90;;;;;;5052382;28;20205;-85
2022/08/20 03:38:20;;;;;;;1.75;1.65;;;20.80;99.90;;;;;;5052425;28;20206;-86
2022/08/20 03:41:00;;;;;;;1.02;1.02;;;20.70;99.90;;;;;;5052454;28;20228;-86
2022/08/20 03:43:29;;;;;;;1.75;1.65;;;20.70;99.90;;;;;;5054427;28;20211;-85
2022/08/20 03:45:57;;;;;;;1.40;1.30;;;20.60;99.90;;;;;;5056318;28;20222;-86
2022/08/20 03:48:28;;;;;;;0.93;0.93;;;20.60;99.90;;;;;;5055888;28;20284;-86
2022/08/20 03:50:59;;;;;;;0.98;0.98;;;20.60;99.90;;;;;;5056241;28;20241;-86
2022/08/20 03:53:30;;;;;;;1.05;1.02;;;20.60;99.90;;;;;;5058174;28;20291;-85
2022/08/20 03:56:03;;;;;;;1.20;1.10;;;20.60;99.90;;;;;;5069084;28;20201;-86
2022/08/20 03:58:33;;;;;;;1.48;1.38;;;20.60;99.90;;;;;;5062848;28;20288;-86
2022/08/20 04:01:04;;;;;;;0.98;0.95;;;20.60;99.90;;;;;;5056326;28;20324;-86
2022/08/20 04:03:35;;;;;;;0.85;0.85;;;20.60;99.90;;;;;;5056067;28;20201;-86
2022/08/20 04:06:03;;;;;;;1.10;1.10;;;20.60;99.90;;;;;;5055815;28;20230;-86
2022/08/20 04:08:31;;;;;;;1.15;1.15;;;20.60;99.90;;;;;;5055930;28;20212;-86
2022/08/20 04:11:00;;;;;;;1.27;1.17;;;20.60;99.90;;;;;;5055972;28;20232;-86
2022/08/20 04:13:30;;;;;;;1.02;1.02;;;20.60;99.90;;;;;;5056099;28;20284;-86
2022/08/20 04:16:02;;;;;;;0.90;0.90;;;20.60;99.90;;;;;;5055810;28;20210;-86
2022/08/20 04:18:31;;;;;;;1.00;1.00;;;20.60;99.90;;;;;;5055656;28;20275;-86
2022/08/20 04:21:01;;;;;;;1.08;1.08;;;20.60;99.90;;;;;;5055977;28;20229;-86
2022/08/20 04:23:30;;;;;;;0.93;0.93;;;20.60;99.90;;;;;;5055524;28;20208;-85
2022/08/20 04:26:00;;;;;;;1.20;1.10;;;20.60;99.90;;;;;;5055630;28;20236;-86
2022/08/20 04:28:29;;;;;;;0.90;0.85;;;20.60;99.90;;;;;;5055333;28;20269;-86
2022/08/20 04:30:59;;;;;;;1.10;1.10;;;20.60;99.90;;;;;;5054934;28;20302;-85
2022/08/20 04:33:30;;;;;;;0.90;0.90;;;20.60;99.90;;;;;;5055824;28;20215;-84
2022/08/20 04:36:04;;;;;;;1.08;1.00;;;20.60;99.90;;;;;;5055444;28;20201;-86
2022/08/20 04:38:34;;;;;;;1.25;1.00;;;20.60;99.90;;;;;;5055337;28;20212;-85
2022/08/20 04:41:18;;;;;;;1.00;1.00;;;20.60;99.90;;;;;;5055097;28;20229;-86
2022/08/20 04:43:51;;;;;;;1.02;1.00;;;20.60;99.90;;;;;;5055251;28;20267;-85
2022/08/20 04:46:19;;;;;;;1.05;1.05;;;20.60;99.90;;;;;;5054895;28;20218;-85
2022/08/20 04:48:47;;;;;;;0.98;0.98;;;20.60;99.90;;;;;;5054723;28;20205;-86
2022/08/20 04:51:19;;;;;;;1.20;1.20;;;20.60;99.90;;;;;;5054947;28;20230;-86
2022/08/20 04:53:52;;;;;;;1.02;1.02;;;20.60;99.90;;;;;;5055090;28;20236;-86
2022/08/20 04:56:22;;;;;;;1.05;1.00;;;20.60;99.90;;;;;;5054675;28;20222;-85
2022/08/20 04:58:52;;;;;;;1.00;1.00;;;20.60;99.90;;;;;;5054645;28;20208;-85
2022/08/20 05:01:22;;;;;;;1.10;1.10;;;20.70;99.90;;;;;;5054768;28;20222;-86
2022/08/20 05:03:53;;;;;;;1.05;1.05;;;20.70;99.90;;;;;;5054729;28;20206;-86
2022/08/20 05:06:24;;;;;;;1.30;1.20;;;20.70;99.90;;;;;;5054813;28;20249;-86
2022/08/20 05:08:54;;;;;;;0.90;0.90;;;20.70;99.90;;;;;;5054710;28;20216;-86
2022/08/20 05:11:23;;;;;;;1.48;1.38;;;20.70;99.90;;;;;;5055184;28;20357;-85
2022/08/20 05:14:02;;;;;;;1.58;1.15;;;20.80;99.90;;;;;;5054678;28;20266;-86
2022/08/20 05:16:31;;;;;;;1.38;1.27;;;20.70;99.90;;;;;;5055016;28;20271;-86
2022/08/20 05:19:00;;;;;;;1.30;1.30;;;20.70;99.90;;;;;;5054496;28;20261;-86
2022/08/20 05:21:29;;;;;;;1.30;1.30;;;20.70;99.90;;;;;;5054738;28;20277;-86
2022/08/20 05:23:58;;;;;;;1.00;1.00;;;20.70;99.90;;;;;;5054605;28;20210;-85
2022/08/20 05:26:26;;;;;;;1.30;1.20;;;20.70;99.90;;;;;;5054362;28;20231;-86
2022/08/20 05:28:54;;;;;;;0.85;0.85;;;20.70;99.90;;;;;;5054124;28;20296;-85
2022/08/20 05:31:26;;;;;;;1.10;1.00;;;20.70;99.90;;;;;;5054213;28;20237;-86
2022/08/20 05:34:00;;;;;;;2.10;1.05;;;20.70;99.90;;;;;;5054334;28;20205;-85
2022/08/20 05:36:30;;;;;;;0.80;0.80;;;20.70;99.90;;;;;;5054626;28;20201;-85
2022/08/20 05:38:58;;;;;;;1.10;1.00;;;20.70;99.90;;;;;;5054473;28;20252;-85
2022/08/20 05:41:28;;;;;;;1.98;1.17;;;20.70;99.90;;;;;;5054540;28;20316;-88
2022/08/20 05:44:00;;;;;;;0.70;0.70;;;20.80;99.90;;;;;;5054160;28;20206;-85
2022/08/20 05:46:29;;;;;;;1.20;1.17;;;20.80;99.90;;;;;;5054280;28;20248;-85
2022/08/20 05:49:00;;;;;;;0.90;0.90;;;20.90;99.90;;;;;;5053581;28;20287;-85
2022/08/20 05:51:31;;;;;;;1.10;1.00;;;20.90;99.90;;;;;;5054280;28;20226;-86
2022/08/20 05:53:59;;;;;;;1.00;1.00;;;21.00;99.90;;;;;;5054314;28;20297;-86
2022/08/20 05:56:30;;;;;;;1.10;1.10;;;21.00;99.90;;;;;;5053820;28;20212;-86
2022/08/20 05:59:01;;;;;;;0.80;0.80;;;21.00;99.90;;;;;;5053425;28;20248;-86
2022/08/20 06:01:29;;;;;;;0.80;0.80;;;21.00;99.90;;;;;;5053772;28;20234;-86
2022/08/20 06:06:45;;;;;;;0.80;0.80;;;20.90;99.90;;;;;;5052944;28;20309;-85
2022/08/20 06:09:16;;;;;;;0.77;0.77;;;20.90;99.90;;;;;;5053594;28;20210;-85
2022/08/20 06:11:59;;;;;;;0.70;0.70;;;20.90;99.90;;;;;;5053920;28;20233;-84
2022/08/20 06:14:27;;;;;;;1.13;1.08;;;20.90;99.90;;;;;;5053695;28;20288;-84
2022/08/20 06:17:01;;;;;;;0.68;0.68;;;20.90;99.90;;;;;;5054016;28;20201;-85
2022/08/20 06:19:29;;;;;;;0.88;0.70;;;20.90;99.90;;;;;;5053356;28;20210;-85
2022/08/20 06:22:01;;;;;;;0.80;0.80;;;20.90;99.90;;;;;;5053345;28;20308;-85
2022/08/20 06:24:45;;;;;;;0.82;0.82;;;20.80;99.90;;;;;;5053343;28;20220;-86
2022/08/20 06:27:16;;;;;;;0.70;0.70;;;20.80;99.90;;;;;;5053122;28;20218;-86
2022/08/20 06:29:44;;;;;;;1.27;0.90;;;20.80;99.90;;;;;;5053360;28;20289;-85
2022/08/20 06:32:13;;;;;;;1.33;1.23;;;20.90;99.90;;;;;;5053201;28;20241;-86
2022/08/20 06:34:41;;;;;;;0.73;0.73;;;20.90;99.90;;;;;;5053384;28;20209;-86
2022/08/20 06:37:22;;;;;;;0.93;0.93;;;21.00;99.90;;;;;;5053118;28;20269;-86
2022/08/20 06:40:01;;;;;;;0.90;0.90;;;21.00;99.90;;;;;;5052791;28;20262;-86
2022/08/20 06:42:30;;;;;;;1.10;1.10;;;21.00;99.90;;;;;;5053141;28;20303;-85
2022/08/20 06:45:03;;;;;;;0.70;0.70;;;21.10;99.90;;;;;;5053229;28;20206;-86
2022/08/20 06:47:32;;;;;;;0.57;0.57;;;21.10;99.90;;;;;;5052356;28;20242;-85
2022/08/20 06:50:00;;;;;;;5.85;1.00;;;21.10;99.90;;;;;;5052776;28;20205;-86
2022/08/20 06:52:30;;;;;;;0.65;0.65;;;21.10;99.90;;;;;;5052683;28;20256;-86
2022/08/20 06:55:18;;;;;;;0.82;0.82;;;21.00;99.90;;;;;;5052491;28;20206;-86
2022/08/20 06:57:47;;;;;;;0.90;0.90;;;21.00;99.90;;;;;;5053083;28;20206;-85
2022/08/20 07:00:19;;;;;;;0.47;0.47;;;21.20;99.90;;;;;;5052498;28;20261;-86
2022/08/20 07:02:47;;;;;;;0.70;0.70;;;21.10;99.90;;;;;;5052612;28;20237;-88
2022/08/20 07:05:16;;;;;;;0.98;0.98;;;21.10;99.90;;;;;;5052579;28;20212;-87
2022/08/20 07:07:48;;;;;;;0.68;0.68;;;21.20;99.90;;;;;;5052370;28;20218;-86
2022/08/20 07:10:17;;;;;;;0.70;0.70;;;21.10;99.90;;;;;;5052533;28;20212;-86
2022/08/20 07:12:49;;;;;;;0.88;0.88;;;21.10;99.90;;;;;;5052761;28;20232;-87
2022/08/20 07:15:19;;;;;;;0.75;0.75;;;21.20;99.90;;;;;;5052728;28;20201;-87
2022/08/20 07:17:50;;;;;;;0.88;0.88;;;21.20;99.90;;;;;;5052050;28;20258;-87
2022/08/20 07:20:19;;;;;;;1.00;1.00;;;21.20;99.90;;;;;;5052785;28;20273;-86
2022/08/20 07:22:49;;;;;;;1.27;0.93;;;21.20;99.90;;;;;;5052482;28;20316;-87
2022/08/20 07:25:20;;;;;;;1.27;1.00;;;21.10;99.90;;;;;;5052665;28;20205;-87
2022/08/20 07:27:49;;;;;;;0.80;0.80;;;21.10;99.90;;;;;;5052221;28;20268;-86
2022/08/20 07:33:25;;;;;;;0.57;0.57;;;21.20;99.90;;;;;;5063829;28;20232;-86
2022/08/20 07:35:55;;;;;;;1.20;1.02;;;21.40;99.90;;;;;;5053012;28;20205;-87
2022/08/20 07:38:27;;;;;;;0.95;0.95;;;21.50;99.90;;;;;;5052515;28;20210;-86
2022/08/20 07:40:57;;;;;;;1.15;0.88;;;21.50;99.90;;;;;;5052479;28;20246;-86
2022/08/20 07:43:26;;;;;;;1.58;0.85;;;21.50;99.90;;;;;;5052267;28;20205;-86
2022/08/20 07:45:57;;;;;;;0.50;0.50;;;21.70;99.90;;;;;;5052391;28;20240;-87
2022/08/20 07:48:27;;;;;;;0.90;0.90;;;21.90;99.90;;;;;;5051782;28;20206;-86
2022/08/20 07:51:01;;;;;;;0.98;0.98;;;22.00;99.90;;;;;;5052284;28;20233;-87
2022/08/20 07:53:32;;;;;;;0.80;0.80;;;22.00;99.90;;;;;;5052406;28;20220;-86
2022/08/20 07:56:05;;;;;;;0.57;0.52;;;22.20;99.90;;;;;;5052269;28;20202;-86
2022/08/20 07:58:37;;;;;;;0.90;0.90;;;22.50;99.90;;;;;;5051810;28;20233;-87
2022/08/20 08:01:06;;;;;;;0.80;0.80;;;22.90;99.90;;;;;;5052027;28;20230;-86
2022/08/20 08:03:36;;;;;;;1.17;0.63;;;23.20;99.90;;;;;;5051992;28;20209;-85
2022/08/20 08:06:17;;;;;;;0.60;0.60;;;23.10;99.90;;;;;;5052682;28;20233;-85
2022/08/20 08:09:01;;;;;;;0.30;0.30;;;23.30;99.90;;;;;;5052369;28;20222;-85
2022/08/20 08:11:31;;;;;;;0.63;0.63;;;23.60;99.90;;;;;;5052285;28;20304;-85
2022/08/20 08:13:59;;;;;;;0.70;0.70;;;23.80;99.90;;;;;;5052157;28;20288;-85
2022/08/20 08:16:31;;;;;;;0.57;0.57;;;24.10;99.90;;;;;;5052205;28;20258;-86
2022/08/20 08:19:00;;;;;;;0.85;0.63;;;24.60;99.90;;;;;;5052040;28;20210;-86
2022/08/20 08:21:30;;;;;;;0.40;0.40;;;24.90;99.90;;;;;;5052061;28;20225;-86
2022/08/20 08:24:00;;;;;;;0.32;0.32;;;24.80;99.90;;;;;;5052235;28;20289;-86
2022/08/20 08:26:28;;;;;;;0.50;0.50;;;24.60;99.90;;;;;;5051984;28;20198;-86
2022/08/20 08:28:57;;;;;;;0.63;0.63;;;24.40;99.90;;;;;;5052527;28;20265;-86
2022/08/20 08:31:25;;;;;;;0.50;0.50;;;24.60;99.90;;;;;;5055495;28;20247;-86
2022/08/20 08:33:54;;;;;;;0.40;0.40;;;25.10;99.90;;;;;;5055544;28;20213;-86
2022/08/20 08:36:24;;;;;;;0.70;0.70;;;25.50;99.90;;;;;;5055660;28;20205;-86
2022/08/20 08:38:53;;;;;;;0.52;0.52;;;25.70;99.90;;;;;;5055261;28;20198;-86
2022/08/20 08:41:28;;;;;;;0.43;0.43;;;25.60;99.90;;;;;;5055156;28;20232;-86
2022/08/20 08:44:04;;;;;;;0.40;0.40;;;25.90;99.90;;;;;;5055361;28;20289;-86
2022/08/20 08:46:39;;;;;;;0.52;0.52;;;26.10;99.90;;;;;;5055001;28;20205;-87
2022/08/20 08:49:11;;;;;;;0.70;0.70;;;26.50;99.90;;;;;;5054569;28;20206;-86
2022/08/20 08:51:45;;;;;;;0.38;0.38;;;27.00;99.90;;;;;;5055559;28;20227;-86
2022/08/20 08:54:15;;;;;;;0.57;0.57;;;26.90;99.90;;;;;;5055297;28;20216;-86
2022/08/20 08:56:45;;;;;;;0.50;0.50;;;26.50;99.90;;;;;;5055116;28;20209;-86
2022/08/20 08:59:18;;;;;;;0.40;0.40;;;26.30;99.90;;;;;;5054777;28;20205;-86
2022/08/20 09:01:50;;;;;;;0.77;0.77;;;26.10;99.90;;;;;;5055393;28;20309;-86
2022/08/20 09:04:30;;;;;;;0.60;0.60;;;26.10;99.90;;;;;;5055291;28;20210;-87
2022/08/20 09:06:59;;;;;;;1.00;1.00;;;26.10;99.90;;;;;;5054759;28;20256;-86
2022/08/20 09:09:29;;;;;;;0.57;0.57;;;26.10;99.90;;;;;;5054812;28;20288;-86
2022/08/20 09:12:05;;;;;;;0.73;0.73;;;26.10;99.90;;;;;;5054523;28;20312;-86
2022/08/20 09:14:34;;;;;;;0.73;0.73;;;25.90;99.90;;;;;;5054792;28;20228;-86
2022/08/20 09:17:03;;;;;;;0.77;0.77;;;25.60;99.90;;;;;;5054701;28;20220;-86
2022/08/20 09:19:31;;;;;;;0.68;0.68;;;25.40;99.90;;;;;;5054865;28;20293;-87
2022/08/20 09:21:59;;;;;;;0.75;0.75;;;25.40;99.90;;;;;;5055065;28;20308;-87
2022/08/20 09:24:28;;;;;;;0.90;0.90;;;25.40;99.90;;;;;;5054716;28;20214;-86
2022/08/20 09:26:56;;;;;;;1.02;0.88;;;25.30;99.90;;;;;;5054517;28;20289;-86
2022/08/20 09:29:26;;;;;;;0.50;0.50;;;25.30;99.90;;;;;;5054293;28;20206;-86
2022/08/20 09:32:04;;;;;;;0.63;0.63;;;25.20;99.90;;;;;;5054327;28;20261;-86
2022/08/20 09:34:36;;;;;;;0.60;0.60;;;25.10;99.90;;;;;;5054370;28;20292;-85
2022/08/20 09:37:04;;;;;;;0.88;0.40;;;24.90;99.90;;;;;;5054215;28;20269;-87
2022/08/20 09:39:32;;;;;;;1.38;0.85;;;24.90;99.90;;;;;;5054191;28;20296;-85
2022/08/20 09:42:08;;;;;;;0.73;0.73;;;25.10;99.90;;;;;;5053290;28;20266;-85
2022/08/20 09:44:38;;;;;;;1.75;1.05;;;25.10;99.90;;;;;;5054080;28;20209;-85
2022/08/20 09:47:07;;;;;;;1.63;0.85;;;25.10;99.90;;;;;;5054425;28;20265;-85
2022/08/20 09:49:36;;;;;;;0.60;0.60;;;25.10;99.90;;;;;;5053515;28;20265;-85
2022/08/20 09:52:06;;;;;;;0.82;0.82;;;25.30;99.90;;;;;;5054274;28;20313;-85
2022/08/20 09:54:36;;;;;;;2.08;1.15;;;25.60;99.90;;;;;;5053931;28;20205;-86
2022/08/20 09:57:07;;;;;;;1.20;1.10;;;25.70;99.90;;;;;;5054159;28;20284;-85
2022/08/20 09:59:38;;;;;;;1.45;1.02;;;25.70;99.90;;;;;;5053520;28;20285;-86
2022/08/20 10:02:06;;;;;;;1.00;1.00;;;25.70;99.90;;;;;;5054426;28;20222;-85
2022/08/20 10:04:34;;;;;;;0.80;0.80;;;25.90;99.90;;;;;;5054226;28;20265;-86
2022/08/20 10:07:07;;;;;;;1.10;1.00;;;25.90;99.90;;;;;;5053910;28;20293;-86
2022/08/20 10:09:35;;;;;;;0.85;0.85;;;26.10;99.90;;;;;;5053615;28;20202;-86
2022/08/20 10:12:04;;;;;;;0.77;0.77;;;26.40;99.90;;;;;;5053401;28;20257;-86
2022/08/20 10:14:32;;;;;;;1.35;1.23;;;26.70;99.90;;;;;;5053727;28;20214;-86
2022/08/20 10:17:03;;;;;;;1.38;1.27;;;26.90;99.90;;;;;;5053611;28;20262;-86
2022/08/20 10:19:32;;;;;;;1.75;0.95;;;27.10;99.90;;;;;;5053353;28;20202;-86
2022/08/20 10:22:00;;;;;;;1.90;1.40;;;27.40;99.90;;;;;;5053474;28;20226;-86
2022/08/20 10:24:29;;;;;;;0.80;0.80;;;27.40;99.90;;;;;;5053357;28;20208;-85
2022/08/20 10:26:59;;;;;;;1.30;1.30;;;27.60;99.90;;;;;;5053633;28;20265;-86
2022/08/20 10:29:29;;;;;;;0.65;0.65;;;27.90;99.90;;;;;;5052735;28;20313;-86
2022/08/20 10:31:57;;;;;;;1.02;0.93;;;28.30;99.90;;;;;;5053418;28;20237;-86
2022/08/20 10:34:27;;;;;;;2.65;2.45;;;28.00;99.90;;;;;;5053262;28;20214;-86
2022/08/20 10:36:55;;;;;;;1.58;1.48;;;27.80;99.90;;;;;;5053181;28;20229;-85
2022/08/20 10:39:23;;;;;;;2.05;1.20;;;27.70;99.90;;;;;;5052792;28;20289;-86
2022/08/20 10:41:52;;;;;;;1.35;1.25;;;27.80;99.90;;;;;;5053085;28;20221;-86
2022/08/20 10:44:20;;;;;;;1.08;1.08;;;27.40;99.90;;;;;;5052933;28;20221;-86
2022/08/20 10:46:48;;;;;;;1.30;1.20;;;27.30;99.90;;;;;;5053199;28;20296;-85
2022/08/20 10:49:23;;;;;;;1.08;1.02;;;27.00;99.90;;;;;;5052302;28;20245;-85
2022/08/20 10:51:53;;;;;;;0.70;0.70;;;27.00;99.90;;;;;;5052759;28;20236;-85
2022/08/20 10:54:21;;;;;;;0.80;0.80;;;27.00;99.90;;;;;;5052789;28;20290;-86
2022/08/20 10:56:49;;;;;;;1.00;1.00;;;27.10;99.90;;;;;;5052582;28;20284;-86
2022/08/20 10:59:18;;;;;;;0.90;0.90;;;27.20;99.90;;;;;;5052603;28;20262;-86
2022/08/20 11:01:47;;;;;;;0.88;0.88;;;27.00;99.90;;;;;;5052797;28;20246;-86
2022/08/20 11:04:15;;;;;;;1.05;1.05;;;27.00;99.90;;;;;;5053059;28;20210;-86
2022/08/20 11:06:43;;;;;;;1.08;1.08;;;26.60;99.90;;;;;;5055422;28;20296;-85
2022/08/20 11:09:13;;;;;;;1.08;1.08;;;26.30;99.90;;;;;;5062523;28;20281;-85
2022/08/20 11:11:41;;;;;;;0.90;0.90;;;26.20;99.90;;;;;;5058507;28;20245;-85
2022/08/20 11:14:09;;;;;;;1.40;1.30;;;26.20;99.90;;;;;;5052574;28;20289;-86
2022/08/20 11:16:37;;;;;;;1.65;1.55;;;26.40;99.90;;;;;;5053003;28;20209;-85
2022/08/20 11:19:06;;;;;;;2.13;1.23;;;26.30;99.90;;;;;;5052311;28;20296;-85
2022/08/20 11:21:34;;;;;;;1.30;1.20;;;26.20;99.90;;;;;;5052655;28;20236;-86
2022/08/20 11:24:03;;;;;;;1.00;1.00;;;25.90;99.90;;;;;;5052381;28;20209;-85
2022/08/20 11:26:33;;;;;;;1.48;1.42;;;25.80;99.90;;;;;;5052380;28;20301;-86
2022/08/20 11:29:01;;;;;;;1.73;1.63;;;25.80;99.90;;;;;;5052336;28;20280;-86
2022/08/20 11:31:29;;;;;;;2.15;1.27;;;25.70;99.90;;;;;;5052556;28;20312;-86
2022/08/20 11:33:58;;;;;;;1.67;1.58;;;25.70;99.90;;;;;;5052688;28;20288;-86
2022/08/20 11:36:26;;;;;;;1.55;1.45;;;25.70;99.90;;;;;;5052439;28;20230;-86
2022/08/20 11:38:54;;;;;;;1.30;1.25;;;25.50;99.90;;;;;;5052143;28;20261;-86
2022/08/20 11:41:22;;;;;;;1.40;1.30;;;25.30;99.90;;;;;;5052199;28;20300;-85
2022/08/20 11:43:52;;;;;;;1.52;1.42;;;25.20;99.90;;;;;;5052609;28;20291;-86
2022/08/20 11:46:40;;;;;;;1.33;1.33;;;24.90;99.90;;;;;;5052305;28;20201;-86
2022/08/20 11:49:09;;;;;;;1.40;1.30;;;24.40;99.90;;;;;;5051652;28;20285;-86
2022/08/20 11:51:37;;;;;;;1.25;1.25;;;24.40;99.90;;;;;;5052217;28;20231;-86
2022/08/20 11:54:17;;;;;;;1.63;1.52;;;24.30;99.90;;;;;;5052433;28;20217;-85
2022/08/20 11:56:46;;;;;;;1.80;1.70;;;24.30;99.90;;;;;;5052072;28;20228;-86
2022/08/20 11:59:16;;;;;;;1.85;1.75;;;24.20;99.90;;;;;;5052040;28;20294;-85
2022/08/20 12:01:44;;;;;;;2.53;2.22;;;24.10;99.90;;;;;;5052169;28;20236;-85
2022/08/20 12:04:31;;;;;;;5.80;1.80;;;24.00;99.90;;;;;;5054123;28;20297;-85
2022/08/20 12:07:09;;;;;;;1.27;1.27;;;23.90;99.90;;;;;;5056022;28;20224;-85
2022/08/20 12:09:37;;;;;;;1.70;1.60;;;23.70;99.90;;;;;;5055774;28;20222;-85
2022/08/20 12:12:20;;;;;;;1.60;1.50;;;23.60;99.90;;;;;;5055906;28;20225;-85
2022/08/20 12:14:50;;;;;;;1.55;1.45;;;23.50;99.90;;;;;;5056035;28;20212;-85
2022/08/20 12:17:22;;;;;;;1.65;1.55;;;23.60;99.90;;;;;;5055922;28;20289;-85
2022/08/20 12:19:54;;;;;;;1.55;1.45;;;23.60;99.90;;;;;;5055736;28;20208;-85
2022/08/20 12:22:23;;;;;;;2.10;1.90;;;23.60;99.90;;;;;;5055771;28;20313;-85
2022/08/20 12:24:52;;;;;;;2.03;1.90;;;23.40;99.90;;;;;;5055254;28;20240;-85
2022/08/20 12:27:22;;;;;;;2.65;2.42;;;23.10;99.90;;;;;;5055655;28;20208;-86
2022/08/20 12:29:55;;;;;;;1.92;1.80;;;22.90;99.90;;;;;;5055053;28;20312;-86
2022/08/20 12:32:24;;;;;;;1.67;1.60;;;22.80;99.90;;;;;;5055324;28;20234;-85
2022/08/20 12:34:53;;;;;;;1.90;1.80;;;22.80;99.90;;;;;;5055419;28;20284;-85
2022/08/20 12:37:24;;;;;;;1.92;1.83;;;22.80;99.90;;;;;;5055471;28;20206;-85
2022/08/20 12:39:54;;;;;;;1.73;1.63;;;22.80;99.90;;;;;;5055503;28;20212;-85
2022/08/20 12:42:23;;;;;;;1.80;1.70;;;22.80;99.90;;;;;;5055659;28;20248;-85
2022/08/20 12:44:52;;;;;;;1.90;1.80;;;22.70;99.90;;;;;;5055492;28;20248;-85
2022/08/20 12:47:23;;;;;;;1.98;1.88;;;22.60;99.90;;;;;;5055117;28;20285;-85
2022/08/20 12:49:55;;;;;;;2.55;2.35;;;22.60;99.90;;;;;;5054999;28;20313;-85
2022/08/20 12:52:25;;;;;;;1.80;1.70;;;22.50;99.90;;;;;;5055080;28;20225;-84
2022/08/20 12:54:54;;;;;;;1.75;1.65;;;22.50;99.90;;;;;;5055270;28;20210;-84
2022/08/20 12:57:24;;;;;;;1.88;1.70;;;22.60;99.90;;;;;;5055289;28;20212;-84
2022/08/20 12:59:55;;;;;;;1.80;1.70;;;22.70;99.90;;;;;;5054843;28;20214;-84
2022/08/20 13:02:23;;;;;;;2.05;1.77;;;22.70;99.90;;;;;;5054839;28;20236;-84
2022/08/20 13:04:51;;;;;;;1.83;1.73;;;22.60;99.90;;;;;;5054816;28;20214;-84
2022/08/20 13:07:20;;;;;;;1.98;1.83;;;22.50;99.90;;;;;;5054895;28;20214;-85
2022/08/20 13:09:48;;;;;;;2.28;1.83;;;22.50;99.90;;;;;;5054867;28;20232;-85
2022/08/20 13:12:16;;;;;;;1.95;1.77;;;22.50;99.90;;;;;;5054647;28;20225;-84
2022/08/20 13:14:44;;;;;;;1.92;1.80;;;22.60;99.90;;;;;;5054540;28;20205;-84